Time;durP1;ratioP1;P1;durP2;ratioP2;P2;SDS_P1;SDS_P2;PMS_P1;PMS_P2;Temp;Humidity;BMP_temperature;BMP_pressure;BME280_temperature;BME280_humidity;BME280_pressure;Samples;Min_cycle;Max_cycle;Signal;HPM_P1;HPM_P2
2022/05/11 00:06:54;;;;;;;12.07;7.15;;;9.20;99.90;;;;;;21213199;27;20027;-58
2022/05/11 00:16:59;;;;;;;14.10;7.50;;;9.10;99.90;;;;;;21187050;27;20095;-58
2022/05/11 00:27:02;;;;;;;13.90;7.25;;;9.30;99.90;;;;;;21171471;27;20425;-52
2022/05/11 00:37:05;;;;;;;12.85;7.80;;;9.30;99.90;;;;;;21171942;27;20035;-51
2022/05/11 00:47:21;;;;;;;15.13;7.00;;;9.20;99.90;;;;;;21178730;27;20043;-49
2022/05/11 00:57:32;;;;;;;20.10;9.20;;;9.50;99.90;;;;;;21136300;27;20104;-50
2022/05/11 01:07:35;;;;;;;16.73;8.32;;;9.10;99.90;;;;;;21183494;27;20031;-57
2022/05/11 01:17:39;;;;;;;14.13;8.82;;;9.00;99.90;;;;;;21193148;27;20043;-57
2022/05/11 01:27:45;;;;;;;14.32;8.00;;;8.90;99.90;;;;;;21195104;27;20092;-52
2022/05/11 01:38:05;;;;;;;13.88;8.32;;;8.90;99.90;;;;;;21145441;28;20108;-58
2022/05/11 01:48:07;;;;;;;17.95;10.07;;;8.90;99.90;;;;;;21150822;27;20112;-51
2022/05/11 01:58:11;;;;;;;20.50;10.73;;;8.80;99.90;;;;;;21175562;27;20043;-52
2022/05/11 02:08:14;;;;;;;19.40;9.90;;;8.90;99.90;;;;;;21182394;27;20385;-57
2022/05/11 02:18:17;;;;;;;16.00;9.77;;;9.00;99.90;;;;;;21150235;27;20057;-49
2022/05/11 02:28:22;;;;;;;23.83;9.88;;;8.80;99.90;;;;;;21195192;27;20040;-57
2022/05/11 02:38:33;;;;;;;13.75;8.48;;;8.80;99.90;;;;;;21197596;27;20036;-58
2022/05/11 02:48:36;;;;;;;;;;;8.90;99.90;;;;;;21159286;27;20389;-56
2022/05/11 02:58:38;;;;;;;15.70;8.75;;;8.60;99.90;;;;;;21219142;27;19933;-56
2022/05/11 03:08:42;;;;;;;18.88;9.50;;;8.60;99.90;;;;;;21179917;27;20175;-52
2022/05/11 03:18:45;;;;;;;13.75;7.93;;;8.60;99.90;;;;;;21193059;27;20048;-52
2022/05/11 03:28:48;;;;;;;14.32;8.32;;;8.60;99.90;;;;;;21216832;27;20035;-51
2022/05/11 03:38:51;;;;;;;18.20;9.57;;;8.50;99.90;;;;;;21146667;27;20035;-58
2022/05/11 03:48:53;;;;;;;16.05;7.65;;;8.50;99.90;;;;;;21067639;28;20044;-48
2022/05/11 03:58:56;;;;;;;17.67;8.50;;;8.60;99.90;;;;;;21066895;28;20441;-48
2022/05/11 04:08:59;;;;;;;17.27;9.10;;;8.60;99.90;;;;;;21066115;28;20066;-58
2022/05/11 04:19:01;;;;;;;15.77;9.25;;;8.50;99.90;;;;;;21064622;28;20044;-58
2022/05/11 04:29:04;;;;;;;17.17;9.18;;;8.60;99.90;;;;;;21064619;28;20028;-58
2022/05/11 04:39:07;;;;;;;25.75;12.73;;;8.60;99.90;;;;;;21063958;28;20093;-58
2022/05/11 04:49:23;;;;;;;16.45;9.55;;;8.80;99.90;;;;;;21135420;28;20412;-53
2022/05/11 04:59:26;;;;;;;18.25;9.48;;;9.00;99.90;;;;;;21126023;28;20504;-48
2022/05/11 05:09:28;;;;;;;17.52;9.48;;;9.30;99.90;;;;;;21130363;28;20088;-51
2022/05/11 05:19:32;;;;;;;20.13;10.02;;;9.50;99.90;;;;;;21129092;28;20496;-52
2022/05/11 05:39:57;;;;;;;19.00;12.40;;;10.00;99.90;;;;;;21128344;28;20066;-51
2022/05/11 05:50:00;;;;;;;23.23;12.70;;;10.40;99.90;;;;;;21059858;28;20048;-52
2022/05/11 06:00:04;;;;;;;27.10;13.77;;;10.70;99.90;;;;;;21058744;28;20039;-58
2022/05/11 06:10:08;;;;;;;19.27;10.70;;;11.20;99.90;;;;;;21059662;28;20820;-59
2022/05/11 06:20:12;;;;;;;15.10;9.93;;;11.70;99.90;;;;;;21054998;28;20036;-59
2022/05/11 06:30:15;;;;;;;14.00;7.82;;;13.70;99.90;;;;;;21041653;28;20123;-50
2022/05/11 06:40:19;;;;;;;12.73;8.60;;;17.60;99.90;;;;;;21066821;28;20561;-54
2022/05/11 06:50:24;;;;;;;10.68;7.70;;;20.70;99.90;;;;;;21074067;28;20513;-60
2022/05/11 07:00:32;;;;;;;11.82;7.97;;;22.80;97.10;;;;;;21058122;28;20081;-59
2022/05/11 07:10:42;;;;;;;9.88;7.30;;;23.30;94.90;;;;;;21087787;28;20036;-56
2022/05/11 07:20:45;;;;;;;11.73;8.85;;;22.90;94.80;;;;;;21067668;28;20032;-62
2022/05/11 07:30:53;;;;;;;12.77;9.68;;;22.40;94.50;;;;;;21069977;28;20081;-62
2022/05/11 07:41:26;;;;;;;12.32;7.93;;;22.40;94.10;;;;;;21079810;27;20043;-62
2022/05/11 07:51:30;;;;;;;10.93;8.80;;;22.20;94.80;;;;;;21201471;27;20822;-62
2022/05/11 08:01:32;;;;;;;15.07;8.75;;;22.10;95.90;;;;;;21195300;27;20039;-63
2022/05/11 08:11:36;;;;;;;14.15;8.63;;;22.20;95.50;;;;;;21150702;27;20032;-62
2022/05/11 08:21:38;;;;;;;12.77;8.32;;;22.70;96.00;;;;;;21188979;27;20032;-63
2022/05/11 08:42:03;;;;;;;13.07;8.95;;;23.10;94.70;;;;;;21208826;27;20108;-57
2022/05/11 08:52:15;;;;;;;13.07;7.75;;;22.90;95.70;;;;;;21180783;27;20039;-57
2022/05/11 09:02:36;;;;;;;14.13;9.10;;;23.30;96.20;;;;;;21215657;27;20039;-63
2022/05/11 09:12:39;;;;;;;12.00;7.68;;;23.40;95.90;;;;;;21167689;27;20092;-63
2022/05/11 09:23:02;;;;;;;11.32;8.38;;;23.50;95.80;;;;;;21000155;28;20072;-63
2022/05/11 09:33:22;;;;;;;15.15;8.80;;;23.60;95.20;;;;;;20973700;28;20547;-57
2022/05/11 09:43:27;;;;;;;10.52;8.07;;;23.60;96.00;;;;;;21027728;28;20075;-57
2022/05/11 09:53:38;;;;;;;12.40;7.90;;;23.30;96.30;;;;;;20958867;28;20165;-64
2022/05/11 10:03:52;;;;;;;10.18;8.43;;;23.50;97.60;;;;;;21060024;28;20044;-63
2022/05/11 10:25:16;;;;;;;10.93;7.80;;;23.30;95.40;;;;;;21142731;28;20031;-63
2022/05/11 10:35:21;;;;;;;12.40;7.63;;;23.80;95.60;;;;;;21141401;28;20093;-63
2022/05/11 10:45:36;;;;;;;9.15;6.53;;;23.60;96.70;;;;;;21120418;28;20044;-63
2022/05/11 10:55:43;;;;;;;7.55;5.40;;;23.10;96.60;;;;;;21055773;28;20089;-63
2022/05/11 11:16:36;;;;;;;7.47;5.43;;;23.60;96.90;;;;;;21052428;28;20488;-56
2022/05/11 11:26:49;;;;;;;9.57;5.78;;;23.60;95.40;;;;;;21036863;28;20416;-62
2022/05/11 11:36:53;;;;;;;6.93;5.95;;;23.50;95.40;;;;;;21053114;28;20031;-63
2022/05/11 11:46:58;;;;;;;10.82;7.07;;;23.30;96.40;;;;;;21051404;28;20056;-62
2022/05/11 11:57:06;;;;;;;12.75;7.75;;;23.70;95.90;;;;;;21050732;28;20089;-63
2022/05/11 12:17:47;;;;;;;13.98;10.50;;;23.60;96.30;;;;;;20836884;28;20115;-63
2022/05/11 12:27:51;;;;;;;16.13;10.07;;;23.40;95.00;;;;;;20826042;28;20134;-62
2022/05/11 12:37:59;;;;;;;22.20;12.45;;;23.20;96.60;;;;;;20806410;28;20072;-62
2022/05/11 12:48:03;;;;;;;17.23;12.18;;;21.70;95.90;;;;;;20908987;28;20044;-62
2022/05/11 12:58:06;;;;;;;17.05;11.40;;;21.20;98.20;;;;;;21046114;28;20040;-62
2022/05/11 13:08:11;;;;;;;18.33;11.70;;;21.50;99.10;;;;;;21045333;28;20085;-56
2022/05/11 13:18:29;;;;;;;14.00;11.70;;;21.20;97.00;;;;;;21061603;28;20035;-62
2022/05/11 13:28:35;;;;;;;12.25;9.60;;;21.10;96.90;;;;;;21060751;28;20036;-57
2022/05/11 13:38:48;;;;;;;16.30;11.02;;;21.20;98.80;;;;;;21043489;28;20035;-56
2022/05/11 13:48:50;;;;;;;13.50;9.65;;;21.20;98.80;;;;;;21053072;28;20052;-61
2022/05/11 13:59:00;;;;;;;13.85;9.60;;;21.10;96.70;;;;;;21078178;28;20036;-57
2022/05/11 14:09:02;;;;;;;;;;;20.20;98.90;;;;;;21076695;28;20085;-61
2022/05/11 14:19:05;;;;;;;22.50;9.63;;;21.00;97.10;;;;;;21075124;28;20246;-61
2022/05/11 14:29:09;;;;;;;12.88;8.48;;;21.60;97.60;;;;;;21074617;28;20089;-61
2022/05/11 14:39:21;;;;;;;10.77;8.35;;;22.30;95.20;;;;;;21073781;28;20039;-61
2022/05/11 14:49:23;;;;;;;9.73;7.28;;;22.80;94.70;;;;;;21072729;28;20090;-59
2022/05/11 15:09:48;;;;;;;11.75;7.78;;;23.50;93.70;;;;;;21071568;28;20396;-62
2022/05/11 15:19:51;;;;;;;10.02;6.93;;;24.30;92.00;;;;;;21070916;28;20036;-62
2022/05/11 15:29:54;;;;;;;9.18;7.75;;;24.70;91.10;;;;;;21069900;28;20085;-61
2022/05/11 15:39:57;;;;;;;11.32;6.97;;;24.70;88.90;;;;;;21068996;28;20077;-61
2022/05/11 15:50:03;;;;;;;12.07;8.35;;;24.20;90.60;;;;;;21068365;28;20113;-61
2022/05/11 16:00:10;;;;;;;13.02;8.30;;;23.50;90.00;;;;;;21068012;28;20560;-61
2022/05/11 16:10:14;;;;;;;14.32;8.80;;;22.60;90.60;;;;;;21063803;28;20089;-62
2022/05/11 16:20:17;;;;;;;14.80;9.25;;;21.50;91.50;;;;;;21061687;28;20036;-56
2022/05/11 16:30:20;;;;;;;13.13;8.43;;;19.40;93.80;;;;;;21061658;28;20028;-61
2022/05/11 16:40:24;;;;;;;13.65;8.05;;;17.90;95.70;;;;;;21046964;28;20032;-60
2022/05/11 16:50:27;;;;;;;13.50;8.70;;;17.00;97.80;;;;;;21206898;27;20080;-59
2022/05/11 17:00:30;;;;;;;17.67;9.13;;;16.30;98.80;;;;;;21130180;28;20035;-59
2022/05/11 17:10:33;;;;;;;18.83;11.25;;;15.90;99.90;;;;;;21128996;28;20032;-54
2022/05/11 17:20:40;;;;;;;13.25;8.80;;;15.40;99.90;;;;;;21198197;27;20060;-60
2022/05/11 17:30:42;;;;;;;12.88;6.53;;;15.00;99.90;;;;;;21188071;27;20044;-60
2022/05/11 17:40:48;;;;;;;8.98;5.90;;;15.00;99.90;;;;;;21152619;27;20076;-54
2022/05/11 17:50:59;;;;;;;6.82;3.50;;;14.70;99.90;;;;;;21117884;28;20044;-59
2022/05/11 18:01:04;;;;;;;5.90;3.45;;;14.40;99.40;;;;;;21179610;28;20294;-52
2022/05/11 18:11:07;;;;;;;5.55;2.58;;;14.30;99.80;;;;;;21160526;28;20439;-59
2022/05/11 18:21:11;;;;;;;5.28;3.35;;;14.10;98.40;;;;;;21134926;28;20089;-54
2022/05/11 18:31:14;;;;;;;3.75;2.58;;;14.40;95.70;;;;;;21163359;27;20488;-59
2022/05/11 18:41:16;;;;;;;4.30;1.55;;;15.00;93.80;;;;;;21174466;27;20107;-59
2022/05/11 18:51:19;;;;;;;3.78;1.63;;;15.20;92.70;;;;;;21164716;27;20039;-59
2022/05/11 19:01:21;;;;;;;2.53;1.30;;;14.70;94.00;;;;;;21195544;27;20031;-59
2022/05/11 19:11:25;;;;;;;2.03;1.33;;;14.10;93.80;;;;;;21196132;27;20027;-52
2022/05/11 19:21:27;;;;;;;4.70;1.20;;;13.70;92.20;;;;;;21157593;27;20035;-58
2022/05/11 19:31:31;;;;;;;2.65;1.02;;;14.00;91.70;;;;;;21209504;27;20039;-59
2022/05/11 19:41:34;;;;;;;1.38;1.00;;;14.30;89.40;;;;;;21196726;27;20048;-59
2022/05/11 19:51:38;;;;;;;1.83;0.90;;;14.50;90.30;;;;;;21182812;27;20085;-59
2022/05/11 20:01:42;;;;;;;3.17;1.20;;;14.40;87.40;;;;;;21179285;27;20039;-53
2022/05/11 20:11:47;;;;;;;1.58;1.10;;;14.20;87.10;;;;;;21145163;27;20047;-58
2022/05/11 20:21:49;;;;;;;3.42;1.50;;;14.80;87.30;;;;;;21175029;27;20026;-59
2022/05/11 20:42:13;;;;;;;3.67;1.10;;;15.70;85.60;;;;;;21202195;27;20120;-59
2022/05/11 20:52:15;;;;;;;2.67;1.30;;;15.30;86.30;;;;;;21131203;28;20043;-59
2022/05/11 21:02:18;;;;;;;3.50;1.80;;;15.60;84.60;;;;;;21168779;27;20043;-59
2022/05/11 21:12:21;;;;;;;3.75;1.30;;;15.40;84.20;;;;;;21139118;27;20031;-59
2022/05/11 21:22:24;;;;;;;5.63;1.70;;;15.50;84.10;;;;;;21187327;27;20060;-60
2022/05/11 21:32:26;;;;;;;3.92;1.00;;;15.90;80.00;;;;;;21198472;27;20100;-59
2022/05/11 21:42:29;;;;;;;5.25;1.20;;;15.80;76.60;;;;;;21188579;27;20051;-59
2022/05/11 21:52:31;;;;;;;2.58;1.20;;;15.60;79.90;;;;;;21165858;28;20035;-59
2022/05/11 22:02:34;;;;;;;4.28;1.60;;;15.60;76.00;;;;;;21189945;28;20063;-52
2022/05/11 22:12:56;;;;;;;2.25;0.95;;;15.80;78.90;;;;;;21227664;27;20039;-59
2022/05/11 22:22:58;;;;;;;2.88;0.98;;;15.70;78.60;;;;;;21210117;27;20178;-59
2022/05/11 22:33:03;;;;;;;3.78;1.02;;;14.80;79.00;;;;;;21179422;27;20039;-59
2022/05/11 22:43:05;;;;;;;2.22;0.98;;;15.20;72.00;;;;;;21175550;27;20092;-59
2022/05/11 22:53:10;;;;;;;3.47;1.30;;;15.80;71.90;;;;;;21170692;27;20088;-51
2022/05/11 23:03:13;;;;;;;2.35;0.88;;;15.90;74.40;;;;;;21196539;27;20043;-58
2022/05/11 23:13:16;;;;;;;3.13;1.13;;;15.70;73.00;;;;;;21171695;27;20039;-58
2022/05/11 23:23:19;;;;;;;1.90;0.80;;;15.70;71.50;;;;;;21178744;27;20031;-59
2022/05/11 23:33:22;;;;;;;1.75;1.10;;;15.50;72.30;;;;;;21208886;27;20088;-59
2022/05/11 23:43:25;;;;;;;2.42;1.10;;;15.40;74.20;;;;;;21177794;27;20406;-59
2022/05/11 23:53:27;;;;;;;3.05;1.05;;;15.10;75.70;;;;;;21209798;27;20035;-59
